Time;durP1;ratioP1;P1;durP2;ratioP2;P2;SDS_P1;SDS_P2;PMS_P1;PMS_P2;Temp;Humidity;BMP_temperature;BMP_pressure;BME280_temperature;BME280_humidity;BME280_pressure;Samples;Min_cycle;Max_cycle;Signal;HPM_P1;HPM_P2
2021/04/27 00:01:30;;;;;;;23.70;20.55;;;14.90;64.80;;;;;;5045089;28;20074;-57
2021/04/27 00:03:56;;;;;;;26.98;21.05;;;14.90;64.90;;;;;;5049473;28;20082;-58
2021/04/27 00:06:21;;;;;;;25.17;21.67;;;14.90;65.10;;;;;;5042457;28;20162;-57
2021/04/27 00:08:47;;;;;;;25.05;21.15;;;14.80;65.50;;;;;;5039101;28;20116;-56
2021/04/27 00:11:14;;;;;;;26.90;22.45;;;14.80;65.80;;;;;;5032419;28;20040;-57
2021/04/27 00:13:40;;;;;;;22.98;20.33;;;14.80;65.90;;;;;;5062077;28;20500;-57
2021/04/27 00:16:06;;;;;;;27.33;21.00;;;14.80;66.00;;;;;;5060846;28;20040;-56
2021/04/27 00:18:32;;;;;;;26.10;22.63;;;14.60;65.70;;;;;;5040063;28;20025;-57
2021/04/27 00:20:58;;;;;;;24.13;20.27;;;14.80;65.50;;;;;;5032730;28;20402;-56
2021/04/27 00:23:24;;;;;;;27.65;21.35;;;14.80;65.50;;;;;;5044429;28;20376;-58
2021/04/27 00:25:50;;;;;;;28.58;21.23;;;14.70;65.50;;;;;;5046304;28;20048;-57
2021/04/27 00:28:15;;;;;;;25.83;21.85;;;14.70;65.90;;;;;;5048918;28;20045;-61
2021/04/27 00:30:41;;;;;;;24.63;20.80;;;14.70;65.80;;;;;;5033035;28;20059;-58
2021/04/27 00:33:08;;;;;;;24.35;20.65;;;14.60;66.10;;;;;;5067490;28;20037;-58
2021/04/27 00:35:34;;;;;;;25.50;21.35;;;14.70;65.60;;;;;;5047353;28;20049;-57
2021/04/27 00:38:00;;;;;;;24.40;20.63;;;14.70;65.50;;;;;;5055240;28;20435;-57
2021/04/27 00:40:27;;;;;;;26.48;21.40;;;14.80;65.80;;;;;;5034575;28;20118;-58
2021/04/27 00:42:53;;;;;;;26.58;20.35;;;14.60;66.30;;;;;;5044398;28;20388;-59
2021/04/27 00:45:21;;;;;;;19.80;16.35;;;14.50;66.30;;;;;;5035460;28;20043;-59
2021/04/27 00:47:48;;;;;;;22.83;18.90;;;14.50;65.40;;;;;;5047797;28;20040;-58
2021/04/27 00:50:18;;;;;;;23.48;20.88;;;14.40;65.70;;;;;;5053121;28;20059;-58
2021/04/27 00:52:46;;;;;;;22.73;18.33;;;14.50;66.30;;;;;;5052190;28;20036;-58
2021/04/27 00:55:13;;;;;;;16.17;14.57;;;14.50;65.10;;;;;;5065937;28;20043;-57
2021/04/27 00:57:39;;;;;;;15.73;11.95;;;14.50;64.50;;;;;;5048969;28;20498;-57
2021/04/27 01:00:11;;;;;;;16.35;12.55;;;14.50;63.80;;;;;;5065417;28;20047;-56
2021/04/27 01:02:38;;;;;;;15.00;11.20;;;14.40;63.40;;;;;;5039925;28;20137;-58
2021/04/27 01:05:10;;;;;;;15.55;13.68;;;14.20;62.80;;;;;;5026720;28;20032;-60
2021/04/27 01:07:40;;;;;;;15.10;12.43;;;14.40;63.50;;;;;;5048519;28;20048;-59
2021/04/27 01:10:10;;;;;;;13.68;11.80;;;14.30;62.70;;;;;;5053938;28;20095;-57
2021/04/27 01:13:04;;;;;;;14.90;12.75;;;14.20;62.70;;;;;;5037271;28;20251;-56
2021/04/27 01:15:31;;;;;;;15.75;12.95;;;14.10;62.70;;;;;;5030941;28;20406;-57
2021/04/27 01:17:58;;;;;;;12.55;11.18;;;14.10;63.30;;;;;;5041605;28;20376;-58
2021/04/27 01:20:41;;;;;;;15.35;12.15;;;13.90;62.80;;;;;;5063137;28;20486;-54
2021/04/27 01:23:11;;;;;;;12.70;11.30;;;14.10;62.30;;;;;;5059397;28;20490;-58
2021/04/27 01:25:46;;;;;;;14.02;11.82;;;14.00;63.10;;;;;;5060618;28;20044;-55
2021/04/27 01:28:13;;;;;;;13.98;12.00;;;14.10;63.50;;;;;;5043011;28;20070;-57
2021/04/27 01:30:41;;;;;;;15.02;11.90;;;14.10;62.70;;;;;;5047019;28;20047;-57
2021/04/27 01:33:08;;;;;;;14.10;11.63;;;14.00;63.30;;;;;;5060076;28;20032;-58
2021/04/27 01:35:35;;;;;;;16.65;13.88;;;14.10;63.10;;;;;;5063127;28;20504;-57
2021/04/27 01:38:01;;;;;;;16.80;13.45;;;14.00;63.20;;;;;;5044162;28;20495;-58
2021/04/27 01:40:28;;;;;;;15.25;13.55;;;13.90;63.90;;;;;;5049189;28;20052;-57
2021/04/27 01:42:55;;;;;;;19.08;14.38;;;14.00;64.70;;;;;;5041622;28;20041;-58
2021/04/27 01:45:21;;;;;;;18.17;15.10;;;14.00;64.60;;;;;;5041194;28;20526;-56
2021/04/27 01:47:47;;;;;;;19.02;16.10;;;14.00;64.90;;;;;;5038143;28;20063;-58
2021/04/27 01:50:13;;;;;;;20.17;14.63;;;14.00;65.00;;;;;;5037512;28;20471;-58
2021/04/27 01:52:39;;;;;;;16.98;15.18;;;14.00;65.00;;;;;;5057306;28;20358;-57
2021/04/27 01:55:07;;;;;;;20.63;16.10;;;14.00;65.30;;;;;;5060835;28;20495;-58
2021/04/27 01:57:32;;;;;;;22.23;17.92;;;14.00;65.50;;;;;;5056492;28;20049;-57
2021/04/27 01:59:58;;;;;;;21.60;16.88;;;14.00;65.50;;;;;;5057461;28;20052;-57
2021/04/27 02:02:24;;;;;;;20.38;16.15;;;14.00;66.10;;;;;;5049690;28;20037;-57
2021/04/27 02:04:49;;;;;;;20.92;17.40;;;14.00;66.10;;;;;;5045667;28;20041;-57
2021/04/27 02:07:15;;;;;;;21.40;18.45;;;14.10;66.30;;;;;;5064552;28;20075;-58
2021/04/27 02:09:41;;;;;;;21.08;17.60;;;14.10;66.80;;;;;;5056625;28;20039;-58
2021/04/27 02:12:07;;;;;;;20.98;18.30;;;14.00;67.00;;;;;;5053315;28;20045;-57
2021/04/27 02:14:33;;;;;;;19.33;17.33;;;13.90;66.80;;;;;;5063639;28;20048;-55
2021/04/27 02:17:02;;;;;;;18.38;16.38;;;13.90;67.10;;;;;;5066470;28;20055;-58
2021/04/27 02:19:30;;;;;;;19.00;17.08;;;14.00;67.10;;;;;;5061723;28;20040;-58
2021/04/27 02:22:04;;;;;;;21.80;18.17;;;13.90;67.00;;;;;;5069819;28;20044;-54
2021/04/27 02:24:32;;;;;;;24.67;18.35;;;13.90;67.70;;;;;;5061510;28;20538;-58
2021/04/27 02:26:58;;;;;;;22.38;19.02;;;13.80;67.10;;;;;;5056977;28;20056;-56
2021/04/27 02:29:25;;;;;;;22.85;18.75;;;13.80;67.50;;;;;;5063773;28;20036;-57
2021/04/27 02:31:51;;;;;;;20.73;18.20;;;13.90;67.80;;;;;;5052903;28;20490;-58
2021/04/27 02:34:22;;;;;;;21.40;18.38;;;13.90;68.20;;;;;;5056036;28;20132;-57
2021/04/27 02:36:48;;;;;;;21.98;18.33;;;13.90;68.50;;;;;;5054866;28;20045;-59
2021/04/27 02:39:14;;;;;;;26.58;19.10;;;13.90;68.20;;;;;;5060254;28;20036;-58
2021/04/27 02:41:41;;;;;;;28.90;19.83;;;13.90;67.60;;;;;;5063920;28;20066;-56
2021/04/27 02:44:08;;;;;;;21.75;18.77;;;13.90;67.70;;;;;;5067506;28;21001;-59
2021/04/27 02:46:35;;;;;;;22.05;18.92;;;13.90;68.60;;;;;;5060800;28;20052;-59
2021/04/27 02:49:01;;;;;;;22.88;19.88;;;13.80;67.90;;;;;;5065578;28;20044;-57
2021/04/27 02:51:26;;;;;;;27.48;20.92;;;13.90;68.50;;;;;;5045850;28;20043;-57
2021/04/27 02:53:52;;;;;;;22.10;19.50;;;13.90;68.40;;;;;;5068142;28;20572;-58
2021/04/27 02:56:18;;;;;;;22.52;20.02;;;13.90;68.90;;;;;;5056124;28;20037;-59
2021/04/27 02:58:44;;;;;;;22.55;20.08;;;13.80;68.70;;;;;;5059316;28;20088;-58
2021/04/27 03:01:10;;;;;;;22.00;19.73;;;13.80;68.90;;;;;;5052486;28;20029;-57
2021/04/27 03:03:36;;;;;;;25.42;20.35;;;13.90;68.50;;;;;;5047590;28;20048;-57
2021/04/27 03:12:45;;;;;;;22.48;18.33;;;13.70;68.90;;;;;;4984664;28;20071;-59
2021/04/27 03:15:11;;;;;;;21.70;17.83;;;13.50;68.20;;;;;;5045190;28;20041;-59
2021/04/27 03:17:38;;;;;;;22.40;18.27;;;13.60;68.00;;;;;;5053046;28;20509;-58
2021/04/27 03:20:06;;;;;;;22.92;19.33;;;13.70;68.50;;;;;;5030803;28;20514;-58
2021/04/27 03:22:32;;;;;;;21.90;18.95;;;13.60;67.90;;;;;;5041011;28;20078;-59
2021/04/27 03:24:58;;;;;;;20.52;17.77;;;13.60;68.70;;;;;;5048637;28;20041;-58
2021/04/27 03:27:24;;;;;;;22.10;19.70;;;13.60;68.50;;;;;;5033664;28;20044;-59
2021/04/27 03:29:50;;;;;;;22.58;19.73;;;13.60;68.80;;;;;;5064912;28;20036;-58
2021/04/27 03:32:15;;;;;;;23.63;18.92;;;13.70;68.70;;;;;;5065699;28;20045;-58
2021/04/27 03:34:42;;;;;;;20.75;18.08;;;13.70;68.50;;;;;;5049548;28;20123;-59
2021/04/27 03:37:08;;;;;;;25.40;18.42;;;13.70;69.20;;;;;;5057677;28;20052;-58
2021/04/27 03:39:34;;;;;;;21.77;18.40;;;13.70;68.80;;;;;;5059044;28;20037;-58
2021/04/27 03:42:00;;;;;;;23.35;18.95;;;13.80;68.50;;;;;;5039298;28;20071;-59
2021/04/27 03:44:25;;;;;;;24.23;18.98;;;13.70;68.70;;;;;;5048588;28;20052;-60
2021/04/27 03:46:52;;;;;;;22.83;20.38;;;13.80;68.50;;;;;;5065204;28;20403;-58
2021/04/27 03:49:17;;;;;;;24.75;19.45;;;13.70;69.10;;;;;;5042014;28;20461;-59
2021/04/27 03:51:43;;;;;;;22.95;18.55;;;13.70;68.50;;;;;;5054671;28;20060;-59
2021/04/27 03:54:09;;;;;;;24.02;19.75;;;13.70;68.50;;;;;;5056341;28;20083;-59
2021/04/27 03:56:34;;;;;;;25.92;19.67;;;13.70;68.10;;;;;;5061037;28;20055;-59
2021/04/27 03:59:00;;;;;;;22.70;19.83;;;13.70;68.50;;;;;;5042573;28;20037;-59
2021/04/27 04:01:26;;;;;;;23.85;20.42;;;13.70;68.20;;;;;;5059541;28;20035;-57
2021/04/27 04:03:52;;;;;;;28.75;20.75;;;13.70;68.30;;;;;;5032280;28;20111;-59
2021/04/27 04:06:18;;;;;;;25.83;21.83;;;13.60;68.20;;;;;;5048428;28;20068;-59
2021/04/27 04:08:44;;;;;;;25.23;20.13;;;13.60;68.80;;;;;;5042268;28;21034;-59
2021/04/27 04:11:10;;;;;;;24.08;19.65;;;13.80;68.70;;;;;;5063880;28;20098;-58
2021/04/27 04:13:35;;;;;;;25.60;20.45;;;13.70;68.10;;;;;;5046581;28;20060;-60
2021/04/27 04:16:01;;;;;;;22.70;19.88;;;13.70;68.10;;;;;;5060178;28;20045;-58
2021/04/27 04:18:27;;;;;;;24.58;20.23;;;13.60;68.10;;;;;;5045014;28;20044;-59
2021/04/27 04:20:53;;;;;;;23.42;20.83;;;13.60;68.30;;;;;;5034424;28;20128;-58
2021/04/27 04:23:19;;;;;;;26.60;20.17;;;13.60;68.10;;;;;;5050151;28;20398;-59
2021/04/27 04:25:45;;;;;;;25.20;20.05;;;13.60;68.00;;;;;;5035171;28;20067;-59
2021/04/27 04:28:10;;;;;;;24.00;20.08;;;13.60;68.20;;;;;;5061703;28;20368;-57
2021/04/27 04:30:36;;;;;;;24.83;19.98;;;13.70;68.30;;;;;;5054880;28;20029;-59
2021/04/27 04:33:03;;;;;;;22.85;18.58;;;13.70;67.90;;;;;;5046968;28;20033;-59
2021/04/27 04:35:30;;;;;;;22.40;18.80;;;13.50;67.50;;;;;;5042330;28;20052;-59
2021/04/27 04:37:56;;;;;;;26.40;21.30;;;13.50;67.90;;;;;;5049151;28;20045;-60
2021/04/27 04:40:22;;;;;;;20.80;18.55;;;13.50;68.40;;;;;;5058908;28;20104;-60
2021/04/27 04:42:49;;;;;;;25.92;19.80;;;13.50;68.00;;;;;;5057632;28;20036;-58
2021/04/27 04:45:16;;;;;;;27.17;20.58;;;13.60;68.50;;;;;;5053423;28;20041;-59
2021/04/27 04:47:43;;;;;;;26.65;19.95;;;13.60;68.00;;;;;;5056077;28;20040;-59
2021/04/27 04:50:11;;;;;;;22.30;19.13;;;13.60;68.00;;;;;;5050765;28;20060;-59
2021/04/27 04:52:37;;;;;;;25.00;20.00;;;13.60;67.60;;;;;;5046345;28;20086;-58
2021/04/27 04:55:07;;;;;;;23.92;20.33;;;13.70;67.40;;;;;;5058126;28;20517;-59
2021/04/27 04:57:34;;;;;;;25.13;20.08;;;13.70;67.60;;;;;;5050850;28;20048;-58
2021/04/27 05:00:00;;;;;;;27.35;23.02;;;13.70;67.20;;;;;;5049942;28;20067;-58
2021/04/27 05:02:26;;;;;;;26.55;20.02;;;13.60;67.30;;;;;;5061436;28;20079;-59
2021/04/27 05:04:52;;;;;;;24.38;21.00;;;13.50;67.70;;;;;;5063243;28;20048;-59
2021/04/27 05:07:20;;;;;;;26.20;20.35;;;13.60;67.00;;;;;;5057300;28;20607;-58
2021/04/27 05:09:46;;;;;;;23.77;20.85;;;13.70;67.20;;;;;;5049728;28;20387;-58
2021/04/27 05:12:12;;;;;;;22.52;19.55;;;13.60;67.50;;;;;;5048349;28;20041;-59
2021/04/27 05:14:40;;;;;;;24.30;19.75;;;13.60;66.70;;;;;;5051979;28;20043;-59
2021/04/27 05:17:07;;;;;;;26.35;20.80;;;13.70;67.30;;;;;;5063862;28;20097;-58
2021/04/27 05:19:33;;;;;;;23.50;19.85;;;13.70;67.00;;;;;;5067053;28;20040;-58
2021/04/27 05:22:04;;;;;;;24.13;20.05;;;13.80;66.60;;;;;;5051516;28;20146;-59
2021/04/27 05:24:30;;;;;;;23.35;19.67;;;13.90;66.60;;;;;;5056441;28;20516;-59
2021/04/27 05:26:57;;;;;;;22.98;19.38;;;13.90;66.80;;;;;;5057947;28;20042;-60
2021/04/27 05:29:23;;;;;;;23.85;19.02;;;13.80;66.20;;;;;;5067038;28;20041;-60
2021/04/27 05:31:49;;;;;;;25.75;18.33;;;13.80;66.10;;;;;;5052994;28;20588;-58
2021/04/27 05:34:16;;;;;;;21.65;17.67;;;13.60;65.90;;;;;;5050723;28;20048;-58
2021/04/27 05:36:42;;;;;;;21.10;17.42;;;13.70;66.10;;;;;;5043452;28;20048;-59
2021/04/27 05:39:07;;;;;;;22.05;17.35;;;13.80;66.20;;;;;;5055244;28;20387;-59
2021/04/27 05:41:33;;;;;;;22.02;17.23;;;13.80;66.00;;;;;;5049576;28;20037;-59
2021/04/27 05:43:59;;;;;;;19.58;16.83;;;13.70;65.90;;;;;;5068206;28;20055;-59
2021/04/27 05:46:25;;;;;;;20.45;16.00;;;13.70;66.20;;;;;;5068504;28;20062;-59
2021/04/27 05:48:51;;;;;;;23.40;15.43;;;13.70;65.60;;;;;;5048422;28;20052;-58
2021/04/27 05:51:17;;;;;;;18.00;16.10;;;13.70;65.50;;;;;;5060169;28;20041;-58
2021/04/27 05:53:42;;;;;;;21.77;16.05;;;13.80;65.60;;;;;;5060689;28;20052;-59
2021/04/27 05:56:08;;;;;;;18.33;15.75;;;13.90;65.30;;;;;;5064920;28;20052;-59
2021/04/27 05:58:34;;;;;;;16.60;14.55;;;13.90;65.30;;;;;;5060980;28;20041;-57
2021/04/27 06:01:00;;;;;;;18.42;14.25;;;13.90;65.10;;;;;;5063892;28;20076;-58
2021/04/27 06:03:26;;;;;;;20.70;16.27;;;13.90;65.00;;;;;;5048003;28;20134;-58
2021/04/27 06:05:51;;;;;;;21.50;15.20;;;13.90;65.20;;;;;;5060904;28;20049;-60
2021/04/27 06:08:17;;;;;;;19.85;16.08;;;14.00;64.80;;;;;;5050965;28;20049;-58
2021/04/27 06:10:43;;;;;;;22.33;15.73;;;14.00;65.20;;;;;;5059852;28;20662;-57
2021/04/27 06:13:08;;;;;;;21.75;15.05;;;13.90;64.30;;;;;;5053485;28;20060;-58
2021/04/27 06:15:34;;;;;;;21.90;16.27;;;13.80;64.40;;;;;;5058099;28;20163;-58
2021/04/27 06:17:59;;;;;;;19.15;15.13;;;13.90;64.80;;;;;;5059340;28;20040;-59
2021/04/27 06:20:25;;;;;;;21.10;15.90;;;14.00;64.50;;;;;;5066512;28;20671;-58
2021/04/27 06:22:51;;;;;;;18.45;15.88;;;14.00;64.00;;;;;;5066203;28;20041;-59
2021/04/27 06:25:16;;;;;;;17.73;14.45;;;14.10;64.10;;;;;;5057987;28;20123;-59
2021/04/27 06:27:42;;;;;;;18.35;15.07;;;14.10;63.30;;;;;;5061282;28;20040;-58
2021/04/27 06:30:11;;;;;;;18.88;14.10;;;14.10;63.70;;;;;;5046688;28;20041;-58
2021/04/27 06:32:37;;;;;;;17.77;14.65;;;14.20;63.30;;;;;;5047613;28;20394;-57
2021/04/27 06:35:04;;;;;;;20.48;14.75;;;14.30;63.00;;;;;;5052327;28;20074;-59
2021/04/27 06:37:30;;;;;;;18.27;14.25;;;14.30;62.60;;;;;;5052186;28;20048;-59
2021/04/27 06:39:56;;;;;;;15.48;12.50;;;14.40;62.50;;;;;;5051291;28;20088;-58
2021/04/27 06:42:21;;;;;;;16.98;13.05;;;14.30;62.50;;;;;;5047489;28;20098;-61
2021/04/27 06:44:48;;;;;;;17.42;12.82;;;14.30;62.30;;;;;;5048941;28;20044;-59
2021/04/27 06:47:14;;;;;;;19.55;13.52;;;14.40;62.10;;;;;;5051761;28;20048;-59
2021/04/27 06:49:41;;;;;;;18.55;15.25;;;14.40;62.20;;;;;;5064635;28;20068;-58
2021/04/27 06:52:07;;;;;;;20.23;13.57;;;14.50;61.90;;;;;;5067894;28;20032;-56
2021/04/27 06:54:33;;;;;;;21.95;14.48;;;14.50;61.60;;;;;;5058932;28;20044;-57
2021/04/27 06:57:02;;;;;;;62.75;20.25;;;14.40;61.60;;;;;;5055150;28;20132;-59
2021/04/27 06:59:31;;;;;;;112.05;26.80;;;14.40;61.80;;;;;;5039787;28;20051;-59
2021/04/27 07:02:02;;;;;;;72.20;21.05;;;14.40;61.70;;;;;;5047016;28;20143;-59
2021/04/27 07:04:29;;;;;;;91.13;25.98;;;14.50;62.40;;;;;;5045933;28;20064;-58
2021/04/27 07:06:55;;;;;;;49.95;18.15;;;14.40;61.80;;;;;;5044323;28;20401;-60
2021/04/27 07:09:21;;;;;;;27.27;14.70;;;14.40;61.70;;;;;;5047168;28;20091;-58
2021/04/27 07:11:47;;;;;;;22.80;14.93;;;14.50;61.70;;;;;;5044640;28;20518;-59
2021/04/27 07:14:13;;;;;;;17.85;14.43;;;14.40;62.10;;;;;;5050506;28;20053;-58
2021/04/27 07:16:39;;;;;;;19.60;14.40;;;14.30;62.00;;;;;;5049011;28;20147;-57
2021/04/27 07:19:05;;;;;;;16.35;14.15;;;14.40;62.00;;;;;;5047660;28;20025;-58
2021/04/27 07:21:31;;;;;;;21.02;13.70;;;14.50;62.40;;;;;;5050569;28;20039;-58
2021/04/27 07:23:57;;;;;;;15.95;12.98;;;14.50;61.70;;;;;;5065718;28;20036;-58
2021/04/27 07:26:22;;;;;;;24.70;13.02;;;14.40;61.60;;;;;;5027264;28;20029;-61
2021/04/27 07:28:48;;;;;;;20.13;14.05;;;14.60;61.10;;;;;;5055138;28;20036;-58
2021/04/27 07:31:14;;;;;;;29.48;16.48;;;14.50;60.50;;;;;;5043758;28;20136;-57
2021/04/27 07:33:39;;;;;;;19.70;14.15;;;14.60;60.40;;;;;;5050766;28;20048;-57
2021/04/27 07:36:05;;;;;;;21.50;15.00;;;14.60;60.60;;;;;;5051375;28;20044;-59
2021/04/27 07:38:31;;;;;;;18.73;14.35;;;14.60;61.00;;;;;;5053558;28;20040;-59
2021/04/27 07:40:57;;;;;;;20.25;15.35;;;14.60;60.70;;;;;;5040315;28;20038;-57
2021/04/27 07:43:23;;;;;;;21.05;15.30;;;14.70;61.20;;;;;;5024967;28;20042;-61
2021/04/27 07:45:48;;;;;;;21.30;16.15;;;14.70;61.40;;;;;;5050378;28;20039;-59
2021/04/27 07:48:14;;;;;;;17.80;14.05;;;14.80;60.80;;;;;;5033028;28;20052;-59
2021/04/27 07:50:40;;;;;;;22.83;16.17;;;15.00;60.30;;;;;;5041846;28;20441;-58
2021/04/27 07:53:05;;;;;;;24.60;16.00;;;15.10;59.90;;;;;;5043898;28;20048;-57
2021/04/27 07:55:32;;;;;;;22.13;15.65;;;15.10;59.70;;;;;;5060959;28;20399;-58
2021/04/27 07:57:57;;;;;;;19.85;16.23;;;15.20;59.70;;;;;;5061322;28;20493;-57
2021/04/27 08:00:23;;;;;;;17.88;15.93;;;15.20;59.90;;;;;;5055075;28;20053;-57
2021/04/27 08:02:50;;;;;;;23.65;16.63;;;15.20;60.00;;;;;;5042632;28;20052;-58
2021/04/27 08:05:16;;;;;;;19.58;16.20;;;15.10;60.50;;;;;;5059737;28;20105;-58
2021/04/27 08:07:42;;;;;;;21.73;16.30;;;15.10;60.50;;;;;;5023859;28;20041;-58
2021/04/27 08:10:12;;;;;;;21.30;15.75;;;15.10;59.70;;;;;;5050265;28;20522;-57
2021/04/27 08:12:38;;;;;;;20.55;16.88;;;15.20;59.80;;;;;;5043921;28;20475;-56
2021/04/27 08:15:04;;;;;;;17.90;15.90;;;15.40;59.20;;;;;;5046603;28;20102;-58
2021/04/27 08:17:30;;;;;;;19.27;16.17;;;15.30;59.50;;;;;;5042959;28;20056;-58
2021/04/27 08:19:57;;;;;;;22.13;16.73;;;15.30;59.30;;;;;;5042952;28;20040;-58
2021/04/27 08:22:23;;;;;;;16.90;15.05;;;15.40;59.20;;;;;;5063718;28;20060;-61
2021/04/27 08:24:48;;;;;;;19.65;13.77;;;15.40;58.80;;;;;;5058659;28;20087;-59
2021/04/27 08:27:15;;;;;;;16.20;14.57;;;15.50;58.30;;;;;;5051777;28;20455;-57
2021/04/27 08:29:41;;;;;;;21.05;15.02;;;15.70;58.50;;;;;;5042599;28;20106;-58
2021/04/27 08:32:07;;;;;;;21.05;15.52;;;15.80;57.60;;;;;;5055538;28;20051;-57
2021/04/27 08:34:34;;;;;;;32.78;17.75;;;16.00;57.50;;;;;;5050523;28;20045;-60
2021/04/27 08:36:59;;;;;;;32.45;16.42;;;16.00;57.10;;;;;;5064451;28;20033;-59
2021/04/27 08:39:25;;;;;;;64.25;20.00;;;16.20;57.00;;;;;;5054810;28;20039;-58
2021/04/27 08:41:52;;;;;;;40.08;16.58;;;16.20;55.90;;;;;;5035997;28;20457;-60
2021/04/27 08:44:18;;;;;;;26.83;15.45;;;16.30;56.10;;;;;;5057581;28;20090;-59
2021/04/27 08:46:43;;;;;;;31.55;16.40;;;16.30;55.80;;;;;;5048549;28;20071;-60
2021/04/27 08:49:10;;;;;;;28.25;16.85;;;16.40;56.10;;;;;;5044252;28;20080;-58
2021/04/27 08:51:36;;;;;;;24.23;14.98;;;16.20;56.40;;;;;;5027930;28;20095;-58
2021/04/27 08:54:04;;;;;;;19.55;13.68;;;16.20;56.50;;;;;;5045497;28;20057;-58
2021/04/27 08:56:30;;;;;;;20.10;13.85;;;16.30;56.50;;;;;;5046304;28;20044;-57
2021/04/27 08:58:55;;;;;;;27.92;15.40;;;16.30;56.10;;;;;;5044578;28;20961;-58
2021/04/27 09:01:21;;;;;;;65.07;18.10;;;16.10;55.30;;;;;;5038726;28;20037;-58
2021/04/27 09:03:54;;;;;;;32.55;16.30;;;16.20;55.90;;;;;;5049769;28;20025;-58
2021/04/27 09:06:21;;;;;;;26.20;16.98;;;16.20;55.50;;;;;;5044475;28;20032;-58
2021/04/27 09:08:48;;;;;;;15.50;13.20;;;16.20;55.10;;;;;;5063608;28;20032;-58
2021/04/27 09:11:38;;;;;;;20.58;14.52;;;16.30;55.50;;;;;;5059963;28;20044;-54
2021/04/27 09:14:18;;;;;;;20.10;14.70;;;16.40;55.00;;;;;;5029086;28;20049;-58
2021/04/27 09:16:48;;;;;;;19.00;14.10;;;16.30;54.80;;;;;;5038140;28;20121;-57
2021/04/27 09:19:47;;;;;;;15.50;13.77;;;16.40;54.90;;;;;;5046425;28;20056;-58
2021/04/27 09:22:19;;;;;;;18.35;13.63;;;16.50;54.60;;;;;;4995456;28;20038;-59
2021/04/27 09:24:47;;;;;;;15.10;13.45;;;16.50;54.60;;;;;;5036871;28;20043;-58
2021/04/27 09:27:22;;;;;;;18.70;14.35;;;16.60;54.50;;;;;;5024016;28;20049;-57
2021/04/27 09:29:48;;;;;;;18.38;14.52;;;16.60;54.00;;;;;;5021364;28;20037;-58
2021/04/27 09:32:33;;;;;;;15.80;12.65;;;16.70;53.90;;;;;;5057895;28;20033;-58
2021/04/27 09:35:18;;;;;;;15.18;12.65;;;16.80;53.40;;;;;;5037482;28;20131;-58
2021/04/27 09:38:08;;;;;;;18.67;13.38;;;16.90;53.40;;;;;;5050505;28;20037;-58
2021/04/27 09:41:01;;;;;;;18.70;13.23;;;17.00;52.60;;;;;;5039050;28;20041;-59
2021/04/27 09:43:34;;;;;;;15.35;13.65;;;17.00;52.60;;;;;;5045177;28;20056;-56
2021/04/27 09:46:02;;;;;;;20.05;14.80;;;17.20;52.20;;;;;;5047456;28;20107;-57
2021/04/27 09:48:34;;;;;;;16.02;13.35;;;17.30;51.70;;;;;;5040491;28;20155;-58
2021/04/27 09:51:21;;;;;;;18.15;12.65;;;17.30;52.20;;;;;;5054509;28;20048;-58
2021/04/27 09:54:01;;;;;;;14.50;11.70;;;17.40;50.60;;;;;;5046167;28;20052;-59
2021/04/27 09:56:38;;;;;;;15.52;12.82;;;17.40;51.00;;;;;;5047912;28;20506;-58
2021/04/27 09:59:13;;;;;;;16.25;14.00;;;17.30;51.10;;;;;;5050861;28;20048;-59
2021/04/27 10:01:40;;;;;;;16.85;14.30;;;17.20;52.10;;;;;;5057562;28;20121;-59
2021/04/27 10:04:07;;;;;;;19.55;15.30;;;17.20;52.30;;;;;;5057937;28;20281;-58
2021/04/27 10:06:35;;;;;;;18.55;14.88;;;17.10;52.20;;;;;;5043695;28;20407;-57
2021/04/27 10:09:02;;;;;;;17.15;13.88;;;17.30;52.30;;;;;;5035262;28;20053;-56
2021/04/27 10:11:28;;;;;;;19.25;15.13;;;17.30;52.00;;;;;;5056926;28;20040;-60
2021/04/27 10:13:55;;;;;;;16.00;14.38;;;17.30;51.60;;;;;;5059587;28;20049;-60
2021/04/27 10:16:22;;;;;;;13.85;12.35;;;17.50;51.20;;;;;;5050273;28;20033;-58
2021/04/27 10:18:49;;;;;;;21.27;16.63;;;17.60;50.80;;;;;;5050057;28;20536;-58
2021/04/27 10:21:14;;;;;;;16.80;14.13;;;17.50;50.40;;;;;;5051697;28;20041;-58
2021/04/27 10:23:49;;;;;;;34.83;25.08;;;17.50;51.00;;;;;;5041319;28;20048;-58
2021/04/27 10:26:15;;;;;;;;;;;17.50;51.40;;;;;;5020189;28;20482;-57
2021/04/27 10:29:02;;;;;;;33.08;23.60;;;17.40;50.90;;;;;;5016210;28;19913;-57
2021/04/27 10:31:30;;;;;;;20.83;15.73;;;17.40;51.40;;;;;;5060900;28;20167;-57
2021/04/27 10:34:17;;;;;;;28.77;20.33;;;17.30;51.50;;;;;;5046732;28;20041;-56
2021/04/27 10:36:49;;;;;;;17.92;16.13;;;17.20;51.30;;;;;;5051956;28;22642;-57
2021/04/27 10:39:15;;;;;;;23.77;15.27;;;17.30;51.40;;;;;;5042825;28;20043;-56
2021/04/27 10:41:53;;;;;;;16.50;13.52;;;17.40;51.80;;;;;;5053228;28;20124;-56
2021/04/27 10:44:23;;;;;;;17.83;13.52;;;17.40;50.80;;;;;;5052894;28;21072;-57
2021/04/27 10:46:52;;;;;;;14.85;13.35;;;17.70;50.80;;;;;;5064267;28;20132;-57
2021/04/27 10:49:23;;;;;;;20.52;13.90;;;17.70;50.70;;;;;;5053487;28;20046;-57
2021/04/27 10:51:52;;;;;;;14.98;13.07;;;17.80;50.00;;;;;;5062381;28;20044;-57
2021/04/27 10:54:20;;;;;;;24.73;16.60;;;17.80;48.80;;;;;;5049603;28;20422;-58
2021/04/27 10:56:59;;;;;;;17.70;13.48;;;17.70;49.90;;;;;;5038258;28;20045;-58
2021/04/27 10:59:27;;;;;;;17.80;14.10;;;17.90;49.50;;;;;;5054391;28;20097;-57
2021/04/27 11:02:13;;;;;;;13.15;10.45;;;17.70;49.60;;;;;;5067673;28;20440;-57
2021/04/27 11:04:44;;;;;;;16.42;11.05;;;17.80;48.80;;;;;;5027037;28;20102;-59
2021/04/27 11:07:16;;;;;;;13.88;12.45;;;17.70;48.50;;;;;;5053057;28;20059;-58
2021/04/27 11:10:03;;;;;;;12.55;10.68;;;17.60;49.00;;;;;;5047935;28;21969;-58
2021/04/27 11:12:29;;;;;;;13.48;11.15;;;17.70;48.30;;;;;;5028319;28;20029;-58
2021/04/27 11:14:59;;;;;;;14.25;12.75;;;17.70;49.10;;;;;;5028524;28;20051;-60
2021/04/27 11:17:28;;;;;;;14.55;11.90;;;17.80;48.90;;;;;;5063876;28;20048;-56
2021/04/27 11:19:54;;;;;;;18.92;15.13;;;17.70;49.50;;;;;;5032562;28;20041;-57
2021/04/27 11:22:31;;;;;;;16.77;12.68;;;17.50;49.50;;;;;;5047533;28;20509;-58
2021/04/27 11:24:59;;;;;;;12.95;11.15;;;17.50;50.00;;;;;;5042135;28;20040;-58
2021/04/27 11:27:32;;;;;;;14.23;10.88;;;17.40;50.10;;;;;;5045786;28;20120;-60
2021/04/27 11:30:14;;;;;;;18.48;16.80;;;17.30;49.90;;;;;;5050120;28;20135;-57
2021/04/27 11:32:45;;;;;;;13.15;11.88;;;17.20;49.60;;;;;;5048227;28;20047;-56
2021/04/27 11:35:22;;;;;;;15.48;13.90;;;17.10;49.80;;;;;;5061560;28;20122;-57
2021/04/27 11:37:52;;;;;;;15.38;13.75;;;17.20;50.20;;;;;;5043699;28;20048;-56
2021/04/27 11:40:29;;;;;;;14.63;11.23;;;17.20;50.00;;;;;;5046251;28;20130;-58
2021/04/27 11:43:00;;;;;;;10.98;9.80;;;17.20;50.50;;;;;;5051728;28;20617;-58
2021/04/27 11:45:29;;;;;;;13.90;10.65;;;17.00;50.10;;;;;;5030225;28;20155;-58
2021/04/27 11:47:55;;;;;;;11.23;9.85;;;17.00;50.30;;;;;;5043955;28;20048;-60
2021/04/27 11:50:26;;;;;;;11.20;10.10;;;17.10;50.10;;;;;;5044693;28;20036;-58
2021/04/27 11:53:01;;;;;;;10.48;9.48;;;17.10;49.80;;;;;;5045532;28;20041;-57
2021/04/27 11:55:35;;;;;;;11.52;10.35;;;17.10;49.90;;;;;;5060495;28;20083;-57
2021/04/27 11:58:03;;;;;;;13.53;10.50;;;17.20;50.20;;;;;;5047293;28;20052;-58
2021/04/27 12:00:37;;;;;;;14.50;10.68;;;17.30;50.20;;;;;;5052650;28;20072;-58
2021/04/27 12:03:14;;;;;;;13.50;9.95;;;17.30;50.00;;;;;;5054297;28;20428;-55
2021/04/27 12:05:40;;;;;;;10.15;9.05;;;17.20;49.70;;;;;;5050089;28;20029;-57
2021/04/27 12:08:19;;;;;;;15.88;9.52;;;17.20;50.00;;;;;;5053397;28;20225;-57
2021/04/27 12:10:47;;;;;;;11.27;10.05;;;17.30;49.60;;;;;;5058443;28;20037;-55
2021/04/27 12:13:22;;;;;;;11.45;10.25;;;17.40;49.60;;;;;;5039550;28;20033;-58
2021/04/27 12:16:08;;;;;;;15.60;11.15;;;17.50;49.30;;;;;;5029327;28;20052;-58
2021/04/27 12:18:45;;;;;;;13.52;10.68;;;17.80;48.70;;;;;;5022908;28;20043;-57
2021/04/27 12:21:24;;;;;;;13.18;10.45;;;18.00;48.70;;;;;;5062877;28;20105;-58
2021/04/27 12:24:36;;;;;;;20.67;10.98;;;18.20;47.90;;;;;;5045508;28;20131;-57
2021/04/27 12:27:09;;;;;;;11.18;9.75;;;18.20;47.60;;;;;;5009171;28;20150;-57
2021/04/27 12:29:39;;;;;;;11.50;10.18;;;18.30;47.20;;;;;;5045962;28;20036;-57
2021/04/27 12:32:15;;;;;;;13.65;10.88;;;18.50;47.00;;;;;;5042847;28;20090;-58
2021/04/27 12:38:12;;;;;;;13.38;11.00;;;18.40;46.60;;;;;;5000015;28;20066;-58
2021/04/27 12:40:43;;;;;;;11.38;10.02;;;18.40;47.00;;;;;;5063666;28;20033;-58
2021/04/27 12:43:13;;;;;;;23.27;11.13;;;18.30;47.00;;;;;;5041173;28;20056;-57
2021/04/27 12:45:47;;;;;;;36.92;13.10;;;18.30;46.60;;;;;;5051257;28;20103;-57